ADDS METAR Data INFO
IDs: Format: Raw Decoded Include TAF

Data at: 2104 UTC 19 Jul 2018

KCMD 192055Z AUTO 33003KT 10SM CLR 31/20 A2997 RMK AO2 T03100197
KCMD 192035Z AUTO 00000KT 10SM CLR 31/20 A2997 RMK AO2 T03120199
KCMD 192015Z AUTO 32003KT 10SM CLR 30/20 A2998 RMK AO2 T03010203
KCMD 191955Z AUTO 26003KT 10SM CLR 29/20 A2998 RMK AO2 T02930196
KCMD 191935Z AUTO 26003KT 10SM CLR 30/18 A2999 RMK AO2 T02950183
KCMD 191915Z AUTO 21003KT 10SM CLR 31/19 A2999 RMK AO2 T03050194
KCMD 191855Z AUTO 25003KT 10SM CLR 30/20 A2999 RMK AO2 T03000199
KCMD 191835Z AUTO 00000KT 10SM CLR 29/21 A3000 RMK AO2 T02900209
KCMD 191815Z AUTO 29003KT 10SM CLR 28/21 A3000 RMK AO2 T02770212
KCMD 191755Z AUTO 24003KT 10SM CLR 27/21 A3001 RMK AO2 T02740210 10294 20236
KCMD 191735Z AUTO 24004KT 10SM CLR 27/21 A3001 RMK AO2 T02740213
KCMD 191715Z AUTO 24003KT 10SM CLR 28/21 A3002 RMK AO2 T02760209
KCMD 191655Z AUTO 21005KT 10SM SCT049 28/21 A3002 RMK AO2 T02750208
KCMD 191635Z AUTO 21005KT 10SM SCT049 28/21 A3002 RMK AO2 T02770206
KCMD 191615Z AUTO 00000KT 10SM CLR 29/21 A3001 RMK AO2 T02910206
KCMD 191555Z AUTO 00000KT 10SM CLR 28/21 A3001 RMK AO2 T02800206
KCMD 191535Z AUTO 00000KT 10SM CLR 27/20 A3002 RMK AO2 T02710204
KCMD 191515Z AUTO 00000KT 10SM CLR 27/20 A3002 RMK AO2 T02710201
KCMD 191455Z AUTO 00000KT 10SM CLR 28/21 A3002 RMK AO2 LTG DSNT SW AND W T02760205
KCMD 191435Z AUTO 13003KT 10SM CLR 28/20 A3002 RMK AO2 LTG DSNT SW AND W T02770201
KCMD 191415Z AUTO 10003KT 10SM CLR 27/20 A3002 RMK AO2 LTG DSNT W T02680198
KCMD 191355Z AUTO 09004KT 10SM CLR 26/20 A3002 RMK AO2 LTG DSNT W T02620196
KCMD 191335Z AUTO 00000KT 10SM CLR 26/20 A3002 RMK AO2 LTG DSNT W T02620195
KCMD 191315Z AUTO 00000KT 10SM CLR 26/20 A3002 RMK AO2 LTG DSNT W T02590198
KCMD 191255Z AUTO 07003KT 10SM CLR 25/20 A3001 RMK AO2 LTG DSNT W T02510200
KCMD 191235Z AUTO 07003KT 10SM VCTS CLR 25/20 A3001 RMK AO2 LTG DSNT W T02500204
KCMD 191215Z AUTO 00000KT 10SM CLR 25/21 A3001 RMK AO2 LTG DSNT W T02450208
KCMD 191155Z AUTO 00000KT 10SM CLR 24/21 A3000 RMK AO2 LTG DSNT W T02350206 10235 20206
KCMD 191135Z AUTO 00000KT 10SM CLR 23/21 A3000 RMK AO2 LTG DSNT W T02260205
KCMD 191115Z AUTO 00000KT 10SM CLR 22/20 A3000 RMK AO2 LTG DSNT W T02190201
KCMD 191055Z AUTO 00000KT 10SM CLR 22/20 A2999 RMK AO2 T02190200
KCMD 191035Z AUTO 06003KT 10SM CLR 22/20 A2998 RMK AO2 T02210200
KCMD 191015Z AUTO 00000KT 10SM CLR 23/20 A2998 RMK AO2 T02250200
KCMD 190955Z AUTO 00000KT 10SM CLR 22/20 A2998 RMK AO2 T02220201
KCMD 190935Z AUTO 06003KT 10SM CLR 22/20 A2997 RMK AO2 T02180203
KCMD 190915Z AUTO 06003KT 10SM CLR 21/21 A2996 RMK AO2 T02140208
KCMD 190855Z AUTO 00000KT 10SM CLR 21/21 A2996 RMK AO2 T02090205
KCMD 190835Z AUTO 00000KT 5SM BR CLR 21/20 A2996 RMK AO2 T02080203
KCMD 190815Z AUTO 00000KT 7SM CLR 21/21 A2996 RMK AO2 T02110207
KCMD 190755Z AUTO 00000KT 4SM BR CLR 21/21 A2996 RMK AO2 T02110208
KCMD 190735Z AUTO 00000KT 3SM BR CLR 21/21 A2997 RMK AO2 T02110207
KCMD 190715Z AUTO 00000KT 4SM BR CLR 21/21 A2997 RMK AO2 T02110207
KCMD 190655Z AUTO 00000KT 5SM BR CLR 21/21 A2997 RMK AO2 T02130210
KCMD 190640Z AUTO 00000KT 5SM BR CLR 22/21 A2998 RMK AO2 T02150211
KCMD 190615Z AUTO 00000KT 5SM BR CLR 22/21 A2999 RMK AO2 T02160212
KCMD 190555Z AUTO 00000KT 5SM BR CLR 22/21 A2999 RMK AO2 T02170212 10285 20217 403260217
KCMD 190535Z AUTO 00000KT 7SM CLR 22/22 A2999 RMK AO2 T02230217
KCMD 190515Z AUTO 00000KT 10SM CLR 23/22 A2999 RMK AO2 T02280221
KCMD 190455Z AUTO 05003KT 10SM CLR 23/22 A3000 RMK AO2 T02290224
KCMD 190435Z AUTO 00000KT 7SM CLR 23/22 A3000 RMK AO2 T02280223
KCMD 190415Z AUTO 00000KT 7SM CLR 23/22 A3000 RMK AO2 T02300224
KCMD 190355Z AUTO 00000KT 7SM CLR 23/23 A3000 RMK AO2 T02310225
KCMD 190335Z AUTO 00000KT 7SM CLR 23/23 A3000 RMK AO2 T02330226
KCMD 190315Z AUTO 00000KT 7SM CLR 24/23 A3000 RMK AO2 T02360230
KCMD 190255Z AUTO 00000KT 10SM CLR 24/23 A2999 RMK AO2 T02390230
KCMD 190235Z AUTO 02003KT 10SM CLR 24/23 A2999 RMK AO2 T02420231
KCMD 190215Z AUTO 00000KT 10SM CLR 24/23 A2999 RMK AO2 T02400231
KCMD 190155Z AUTO 00000KT 10SM CLR 25/23 A2998 RMK AO2 T02450234
KCMD 190135Z AUTO 00000KT 10SM CLR 25/24 A2998 RMK AO2 T02480235
KCMD 190115Z AUTO 00000KT 10SM CLR 26/23 A2997 RMK AO2 T02550233
KCMD 190055Z AUTO 00000KT 10SM CLR 26/23 A2997 RMK AO2 T02600234
KCMD 190035Z AUTO 00000KT 10SM SCT049 27/24 A2996 RMK AO2 T02690240
KCMD 190015Z AUTO 00000KT 10SM SCT049 28/23 A2996 RMK AO2 T02800234
KCMD 182355Z AUTO 00000KT 10SM CLR 29/23 A2995 RMK AO2 T02850233 10326 20285
KCMD 182335Z AUTO 04004KT 10SM CLR 29/23 A2996 RMK AO2 T02910230
KCMD 182315Z AUTO 01003KT 10SM CLR 30/23 A2996 RMK AO2 T02960231
KCMD 182255Z AUTO 01003KT 10SM CLR 30/23 A2996 RMK AO2 T03020228
KCMD 182235Z AUTO 03005KT 10SM SCT038 SCT055 31/22 A2996 RMK AO2 T03120224
KCMD 182215Z AUTO 04008KT 10SM BKN040 BKN049 32/22 A2996 RMK AO2 T03150223
KCMD 182155Z AUTO 33004KT 10SM SCT042 32/21 A2996 RMK AO2 T03240214
KCMD 182135Z AUTO 36004KT 10SM CLR 32/21 A2996 RMK AO2 T03220211
KCMD 182115Z AUTO 01004KT 10SM SCT044 32/21 A2996 RMK AO2 T03230210
KCMD 182055Z AUTO 01006KT 10SM CLR 33/20 A2996 RMK AO2 T03250200
KCMD 182035Z AUTO 33003KT 10SM SCT041 SCT050 32/22 A2997 RMK AO2 T03240215
KCMD 182015Z AUTO 34004KT 10SM CLR 32/21 A2999 RMK AO2 T03220213
KCMD 181955Z AUTO 01004KT 10SM CLR 32/21 A2999 RMK AO2 T03160210
KCMD 181935Z AUTO 36006KT 10SM CLR 32/22 A3000 RMK AO2 T03240220
KCMD 181915Z AUTO 03004KT 10SM SCT036 SCT045 32/22 A3001 RMK AO2 LTG DSNT W T03210222
KCMD 181855Z AUTO 35005KT 10SM CLR 32/23 A3001 RMK AO2 T03170233
KCMD 181835Z AUTO 03006KT 10SM SCT035 SCT045 32/21 A3001 RMK AO2 T03220208
KCMD 181815Z AUTO 00000KT 10SM BKN035 31/22 A3002 RMK AO2 T03100219
KCMD 181755Z AUTO 00000KT 10SM SCT035 SCT043 31/22 A3002 RMK AO2 T03130223 10324 20223
KCMD 181735Z AUTO 05003KT 10SM CLR 32/23 A3002 RMK AO2 T03220230
KCMD 181715Z AUTO 00000KT 10SM CLR 32/22 A3002 RMK AO2 T03150224
KCMD 181655Z AUTO 00000KT 10SM CLR 31/23 A3003 RMK AO2 T03060225
KCMD 181635Z AUTO 00000KT 10SM CLR 31/22 A3004 RMK AO2 T03100221
KCMD 181615Z AUTO 12003KT 10SM CLR 31/22 A3005 RMK AO2 T03050220
KCMD 181555Z AUTO 00000KT 10SM CLR 30/22 A3005 RMK AO2 T02970221
KCMD 181535Z AUTO 13003KT 10SM SCT018 30/23 A3006 RMK AO2 T02950227
KCMD 181515Z AUTO 00000KT 10SM CLR 29/23 A3005 RMK AO2 T02870229
KCMD 181455Z AUTO 00000KT 10SM CLR 28/23 A3005 RMK AO2 T02790231
KCMD 181435Z AUTO 00000KT 10SM SCT006 27/23 A3005 RMK AO2 T02710233
KCMD 181415Z AUTO 00000KT 10SM BKN006 25/23 A3006 RMK AO2 T02530225
KCMD 181355Z AUTO 00000KT 7SM OVC004 25/23 A3006 RMK AO2 T02470227
KCMD 181335Z AUTO 00000KT 5SM BR OVC004 24/22 A3006 RMK AO2 LTG DSNT W T02360224
KCMD 181315Z AUTO 00000KT 4SM BR OVC002 24/23 A3006 RMK AO2 T02350226
KCMD 181255Z AUTO 00000KT 2 1/2SM BR OVC002 23/23 A3006 RMK AO2 T02310225
KCMD 181235Z AUTO 00000KT 1/2SM FG OVC002 23/22 A3006 RMK AO2 T02270223
KCMD 181215Z AUTO 00000KT 1/4SM FG OVC002 23/22 A3005 RMK AO2 T02250221
KCMD 181155Z AUTO 00000KT M1/4SM FG OVC002 22/22 A3004 RMK AO2 70011 T02220220 10223 20217
KCMD 181135Z AUTO 00000KT M1/4SM FG OVC002 22/22 A3004 RMK AO2 T02210218
KCMD 181115Z AUTO 00000KT M1/4SM FG OVC002 22/22 A3004 RMK AO2 T02200217
KCMD 181055Z AUTO 00000KT 1/4SM FG OVC002 22/22 A3002 RMK AO2 T02200217
KCMD 181035Z AUTO 00000KT 1/2SM FG OVC002 22/22 A3002 RMK AO2 T02210218
KCMD 181015Z AUTO 00000KT 1/2SM FG OVC002 22/22 A3002 RMK AO2 T02220218
KCMD 180955Z AUTO 00000KT 1/2SM FG OVC002 22/22 A3002 RMK AO2 T02220218
KCMD 180935Z AUTO 00000KT 1/2SM FG OVC002 22/22 A3001 RMK AO2 T02230220
KCMD 180915Z AUTO 00000KT 2SM BR OVC002 22/22 A3001 RMK AO2 T02220217